Time;durP1;ratioP1;P1;durP2;ratioP2;P2;SDS_P1;SDS_P2;PMS_P1;PMS_P2;Temp;Humidity;BMP_temperature;BMP_pressure;BME280_temperature;BME280_humidity;BME280_pressure;Samples;Min_cycle;Max_cycle;Signal;HPM_P1;HPM_P2
2021/09/04 00:03:43;;;;;;;20.75;15.10;;;;;;;15.48;71.49;101951.44;10504132;28;20040;-82
2021/09/04 00:08:43;;;;;;;24.23;16.58;;;;;;;15.63;72.74;102008.59;10470573;28;20116;-82
2021/09/04 00:13:43;;;;;;;23.52;14.77;;;;;;;15.59;71.85;101994.50;10503024;28;20080;-82
2021/09/04 00:18:44;;;;;;;33.85;15.45;;;;;;;15.57;72.69;102007.50;10485846;28;20072;-82
2021/09/04 00:23:44;;;;;;;31.45;15.88;;;;;;;14.81;71.81;101882.06;10487443;28;20025;-81
2021/09/04 00:28:45;;;;;;;25.27;16.50;;;;;;;14.87;71.64;101903.94;10473194;28;20028;-82
2021/09/04 00:33:45;;;;;;;28.15;16.00;;;;;;;15.56;71.90;102000.38;10503357;28;20033;-82
2021/09/04 00:38:45;;;;;;;35.28;17.15;;;;;;;15.09;72.35;101937.41;10502653;28;20091;-82
2021/09/04 00:43:46;;;;;;;26.23;16.90;;;;;;;14.69;72.88;101898.16;10484243;28;20032;-82
2021/09/04 00:48:46;;;;;;;20.45;16.90;;;;;;;15.34;72.20;101999.63;10467027;28;20063;-81
2021/09/04 00:53:47;;;;;;;29.20;16.17;;;;;;;15.37;72.17;101988.31;10484118;28;20036;-82
2021/09/04 00:58:47;;;;;;;33.17;17.98;;;;;;;15.30;72.03;101998.38;10503182;28;20135;-82
2021/09/04 01:03:48;;;;;;;34.92;17.00;;;;;;;14.63;72.41;101915.31;10483670;28;20029;-82
2021/09/04 01:08:51;;;;;;;23.58;15.25;;;;;;;14.92;72.02;101954.28;10467943;28;20040;-81
2021/09/04 01:13:51;;;;;;;88.55;68.97;;;;;;;13.33;71.78;101676.13;10467527;28;20036;-81
2021/09/04 01:18:52;;;;;;;53.70;41.00;;;;;;;15.16;71.92;101977.53;10501373;28;20448;-82
2021/09/04 01:23:52;;;;;;;31.95;18.05;;;;;;;14.40;72.11;101872.75;10501638;28;20535;-82
2021/09/04 01:28:55;;;;;;;31.00;17.25;;;;;;;15.02;72.42;101971.13;10501299;28;20124;-83
2021/09/04 01:33:56;;;;;;;33.10;17.65;;;;;;;15.10;72.11;101977.28;10467997;28;20032;-81
2021/09/04 01:38:56;;;;;;;25.80;14.95;;;;;;;14.96;72.76;102008.22;10490752;28;20481;-82
2021/09/04 01:43:57;;;;;;;29.30;15.05;;;;;;;14.96;72.47;101970.03;10465332;28;20046;-81
2021/09/04 01:49:00;;;;;;;25.23;13.70;;;;;;;14.87;72.88;101976.72;10465823;28;20083;-82
2021/09/04 01:54:00;;;;;;;28.10;16.25;;;;;;;14.01;72.96;101835.19;10465725;28;20476;-83
2021/09/04 01:59:01;;;;;;;73.93;49.33;;;;;;;14.49;73.20;101914.34;10484353;28;20051;-82
2021/09/04 02:04:01;;;;;;;25.55;17.33;;;;;;;14.71;73.24;101950.59;10466082;28;20116;-82
2021/09/04 02:09:02;;;;;;;24.20;17.38;;;;;;;14.82;73.48;101966.41;10499239;28;20040;-82
2021/09/04 02:14:02;;;;;;;27.10;15.77;;;;;;;14.56;74.27;101958.03;10498175;28;20463;-81
2021/09/04 02:19:10;;;;;;;20.33;15.80;;;;;;;14.71;73.49;101960.63;10481113;28;20052;-82
2021/09/04 02:24:10;;;;;;;28.10;17.05;;;;;;;14.79;73.07;101960.50;10498518;28;20082;-82
2021/09/04 02:29:11;;;;;;;28.58;16.63;;;;;;;14.57;73.52;101960.53;10480937;28;20128;-82
2021/09/04 02:34:11;;;;;;;27.83;17.42;;;;;;;14.52;72.88;101932.22;10498394;28;20107;-82
2021/09/04 02:39:12;;;;;;;34.70;16.83;;;;;;;13.59;72.64;101766.16;10498219;28;20036;-81
2021/09/04 02:44:12;;;;;;;28.40;17.42;;;;;;;14.45;73.92;101934.84;10446379;28;20141;-81
2021/09/04 02:49:12;;;;;;;22.63;15.98;;;;;;;14.57;73.13;101944.19;10498365;28;20056;-82
2021/09/04 02:54:13;;;;;;;22.88;16.67;;;;;;;14.05;73.76;101880.03;10484711;28;20032;-82
2021/09/04 02:59:13;;;;;;;27.83;18.95;;;;;;;14.31;74.21;101933.06;10464245;28;20036;-81
2021/09/04 03:04:14;;;;;;;31.75;15.02;;;;;;;14.67;73.03;101956.63;10498210;28;20055;-82
2021/09/04 03:09:14;;;;;;;30.75;17.08;;;;;;;14.57;73.44;101952.38;10448008;28;20041;-82
2021/09/04 03:14:15;;;;;;;28.95;18.95;;;;;;;14.37;74.34;101948.63;10487170;28;20059;-81
2021/09/04 03:19:15;;;;;;;32.50;16.80;;;;;;;14.30;74.20;101950.47;10487899;28;20457;-82
2021/09/04 03:24:16;;;;;;;34.63;20.35;;;;;;;14.41;73.78;101941.72;10487521;28;20033;-81
2021/09/04 03:29:17;;;;;;;26.15;18.73;;;;;;;14.14;73.73;101894.38;10506302;28;20495;-82
2021/09/04 03:34:18;;;;;;;24.75;18.05;;;;;;;14.19;74.16;101919.97;10471362;28;20055;-82
2021/09/04 03:39:18;;;;;;;26.58;16.65;;;;;;;14.48;73.08;101939.06;10487384;28;20037;-81
2021/09/04 03:44:19;;;;;;;31.17;18.98;;;;;;;14.44;73.44;101938.63;10486505;28;20562;-82
2021/09/04 03:49:19;;;;;;;46.42;19.45;;;;;;;14.56;73.00;101930.78;10505606;28;20135;-82
2021/09/04 03:54:20;;;;;;;25.02;18.67;;;;;;;14.62;73.24;101932.72;10486702;28;20032;-82
2021/09/04 03:59:21;;;;;;;41.55;18.58;;;;;;;14.50;73.46;101899.66;10486373;28;20391;-81
2021/09/04 04:04:21;;;;;;;32.60;21.00;;;;;;;14.83;73.12;101931.78;10510118;28;20036;-82
2021/09/04 04:09:21;;;;;;;27.25;17.45;;;;;;;14.68;74.65;101941.94;10453084;28;20506;-83
2021/09/04 04:14:22;;;;;;;32.53;22.20;;;;;;;14.53;75.77;101934.72;10469164;28;20041;-81
2021/09/04 04:19:22;;;;;;;37.75;21.08;;;;;;;14.89;74.62;101970.00;10503999;28;20056;-82
2021/09/04 04:24:23;;;;;;;46.33;22.80;;;;;;;14.40;73.87;101867.31;10484590;28;20087;-82
2021/09/04 04:29:23;;;;;;;34.80;23.10;;;;;;;15.03;74.09;101940.94;10489595;28;20048;-82
2021/09/04 04:34:23;;;;;;;33.78;20.38;;;;;;;15.15;74.09;101954.00;10485771;28;20037;-82
2021/09/04 04:39:24;;;;;;;30.48;19.13;;;;;;;15.34;73.70;101953.25;10485505;28;20446;-82
2021/09/04 04:44:24;;;;;;;27.75;19.83;;;;;;;15.47;73.62;101974.28;10467579;28;20123;-82
2021/09/04 04:49:25;;;;;;;42.05;20.88;;;;;;;15.42;73.43;101972.19;10485521;28;20464;-82
2021/09/04 04:54:26;;;;;;;44.80;20.48;;;;;;;14.25;74.30;101775.84;10468712;28;20060;-82
2021/09/04 04:59:27;;;;;;;42.92;21.73;;;;;;;15.44;73.83;101961.03;10468328;28;20036;-81
2021/09/04 05:04:27;;;;;;;35.67;20.85;;;;;;;15.66;73.18;101965.31;10502027;28;20036;-82
2021/09/04 05:09:27;;;;;;;40.17;22.77;;;;;;;15.08;74.01;101905.69;10484244;28;20056;-82
2021/09/04 05:14:28;;;;;;;33.15;22.27;;;;;;;15.50;74.00;101973.88;10483019;28;20468;-82
2021/09/04 05:19:30;;;;;;;28.58;20.30;;;;;;;15.17;74.78;101966.41;10506156;28;20047;-81
2021/09/04 05:24:30;;;;;;;37.65;21.70;;;;;;;15.33;75.46;101981.59;10501232;28;20032;-82
2021/09/04 05:29:31;;;;;;;37.88;23.63;;;;;;;15.45;73.76;101962.75;10466812;28;20135;-81
2021/09/04 05:34:31;;;;;;;34.85;20.48;;;;;;;15.52;74.64;101975.38;10483051;28;20081;-82
2021/09/04 05:39:32;;;;;;;31.48;18.25;;;;;;;14.42;74.02;101771.72;10502035;28;20040;-81
2021/09/04 05:44:32;;;;;;;26.75;18.88;;;;;;;15.10;75.21;101917.25;10500721;28;20377;-82
2021/09/04 05:49:38;;;;;;;28.23;19.88;;;;;;;15.56;74.36;101951.22;10483699;28;20048;-81
2021/09/04 05:54:39;;;;;;;39.08;22.27;;;;;;;14.91;75.07;101866.19;10501380;28;20063;-81
2021/09/04 05:59:53;;;;;;;;;;;;;;;;;;;;;
2021/09/04 06:04:54;;;;;;;37.10;23.17;;;;;;;15.63;75.02;101964.91;10500365;28;20051;-81
2021/09/04 06:09:55;;;;;;;36.25;22.67;;;;;;;15.58;75.85;101969.09;10483374;28;20190;-82
2021/09/04 06:14:55;;;;;;;38.90;23.90;;;;;;;15.68;74.83;101970.63;10480980;28;20034;-81
2021/09/04 06:19:56;;;;;;;33.63;22.13;;;;;;;15.81;74.75;101965.19;10482758;28;20037;-82
2021/09/04 06:24:56;;;;;;;40.88;24.65;;;;;;;15.77;75.11;101981.16;10503013;28;20059;-82
2021/09/04 06:29:56;;;;;;;51.90;20.27;;;;;;;15.92;73.47;101985.59;10478852;28;20024;-82
2021/09/04 06:34:57;;;;;;;34.83;20.98;;;;;;;15.20;73.39;101864.19;10492989;28;20047;-83
2021/09/04 06:40:15;;;;;;;29.00;20.63;;;;;;;13.11;74.10;101542.88;10501434;28;20447;-83
2021/09/04 06:45:15;;;;;;;35.65;20.98;;;;;;;16.05;74.56;101988.38;10466264;28;20071;-83
2021/09/04 06:50:23;;;;;;;22.10;18.52;;;;;;;15.55;74.12;101890.31;10484388;28;20483;-82
2021/09/04 06:55:24;;;;;;;26.45;17.02;;;;;;;16.15;73.81;101993.44;10482155;28;20028;-82
2021/09/04 07:00:24;;;;;;;24.65;18.45;;;;;;;16.17;73.01;101983.97;10480985;28;20036;-82
2021/09/04 07:05:24;;;;;;;28.25;18.52;;;;;;;16.15;72.80;101969.69;10465334;28;20033;-82
2021/09/04 07:10:25;;;;;;;21.88;15.52;;;;;;;16.33;73.60;101996.38;10357320;28;20063;-80
2021/09/04 07:15:25;;;;;;;23.33;16.30;;;;;;;16.33;73.21;101979.97;10481150;28;20399;-83
2021/09/04 07:20:26;;;;;;;24.23;17.13;;;;;;;16.50;72.46;102011.34;10497563;28;20467;-83
2021/09/04 07:25:26;;;;;;;32.97;18.48;;;;;;;16.89;71.33;102004.19;10479516;28;20029;-81
2021/09/04 07:30:27;;;;;;;20.25;15.10;;;;;;;16.69;71.01;102027.97;10497286;28;20369;-82
2021/09/04 07:35:27;;;;;;;20.40;14.32;;;;;;;16.81;70.48;102007.16;10496304;28;20036;-82
2021/09/04 07:40:27;;;;;;;20.80;15.00;;;;;;;16.72;70.32;101997.47;10497619;28;20044;-82
2021/09/04 07:45:28;;;;;;;24.85;16.17;;;;;;;16.89;69.67;101926.75;10480402;28;20067;-82
2021/09/04 07:50:28;;;;;;;23.92;15.88;;;;;;;17.45;69.25;102005.53;10480742;28;20080;-82
2021/09/04 07:55:29;;;;;;;24.98;14.07;;;;;;;16.04;69.55;101809.94;10498506;28;20111;-81
2021/09/04 08:00:29;;;;;;;24.45;13.10;;;;;;;17.21;69.71;102004.34;10487085;28;20111;-81
2021/09/04 08:05:30;;;;;;;20.65;14.55;;;;;;;17.36;69.15;102004.09;10504142;28;20043;-81
2021/09/04 08:10:30;;;;;;;19.88;14.98;;;;;;;17.31;69.59;101998.44;10487229;28;20072;-81
2021/09/04 08:15:30;;;;;;;26.98;13.07;;;;;;;17.30;69.92;102003.06;10503407;28;20047;-81
2021/09/04 08:20:31;;;;;;;29.48;14.45;;;;;;;17.25;69.47;102004.75;10504072;28;20037;-81
2021/09/04 08:25:31;;;;;;;19.02;12.77;;;;;;;17.95;67.85;102007.66;10501953;28;20028;-80
2021/09/04 08:30:32;;;;;;;20.60;12.40;;;;;;;17.37;67.63;101866.97;10502545;28;20446;-81
2021/09/04 08:35:33;;;;;;;14.20;11.45;;;;;;;18.41;65.93;101957.13;10503060;28;20041;-80
2021/09/04 08:40:38;;;;;;;18.65;11.93;;;;;;;18.25;65.39;101947.56;10485637;28;20044;-81
2021/09/04 08:45:39;;;;;;;15.93;11.15;;;;;;;18.44;65.43;101986.84;10484587;28;20028;-81
2021/09/04 08:50:39;;;;;;;11.05;9.52;;;;;;;18.57;65.06;101978.53;10484765;28;20055;-80
2021/09/04 08:55:40;;;;;;;23.67;10.57;;;;;;;19.17;62.54;102011.72;10484481;28;20043;-82
2021/09/04 09:00:41;;;;;;;28.48;12.07;;;;;;;19.19;61.63;101979.41;10502220;28;20051;-81
2021/09/04 09:05:42;;;;;;;19.27;10.32;;;;;;;19.49;62.58;102014.31;10467463;28;20095;-82
2021/09/04 09:10:44;;;;;;;19.15;10.75;;;;;;;18.57;63.49;101902.56;10483893;28;20106;-82
2021/09/04 09:15:45;;;;;;;17.17;11.98;;;;;;;19.80;61.30;102010.59;10503220;28;20042;-83
2021/09/04 09:20:47;;;;;;;12.40;9.60;;;;;;;19.28;60.53;101892.88;10505365;28;20329;-82
2021/09/04 09:25:47;;;;;;;12.52;9.65;;;;;;;20.24;60.06;101969.97;10467431;28;20074;-82
2021/09/04 09:30:52;;;;;;;11.70;9.43;;;;;;;20.12;60.31;101901.19;10500922;28;20031;-82
2021/09/04 09:35:56;;;;;;;11.70;9.18;;;;;;;20.37;59.33;101993.69;10467354;28;20379;-79
2021/09/04 09:40:57;;;;;;;13.43;8.13;;;;;;;20.44;59.99;101972.38;10482928;28;20029;-78
2021/09/04 09:46:02;;;;;;;10.90;8.68;;;;;;;21.09;57.90;101949.41;10483124;28;20539;-76
2021/09/04 09:51:21;;;;;;;10.52;8.20;;;;;;;21.77;56.83;101995.50;10482798;28;20052;-82
2021/09/04 09:56:21;;;;;;;11.82;9.52;;;;;;;21.81;54.49;101937.94;10451708;28;20036;-81
2021/09/04 10:02:08;;;;;;;14.50;9.57;;;;;;;22.30;54.29;101987.94;10483689;28;20060;-80
2021/09/04 10:07:30;;;;;;;11.20;8.68;;;;;;;21.67;54.18;101988.97;10353663;28;20067;-80
2021/09/04 10:12:39;;;;;;;15.73;8.85;;;;;;;21.44;54.15;101952.16;10463854;28;20051;-78
2021/09/04 10:17:42;;;;;;;12.98;9.43;;;;;;;23.30;52.63;101960.50;10464894;28;20032;-79
2021/09/04 10:22:44;;;;;;;18.27;10.48;;;;;;;24.16;51.82;101974.47;10499153;28;20025;-79
2021/09/04 10:27:47;;;;;;;12.05;8.63;;;;;;;25.38;50.04;101951.47;10500699;28;20040;-79
2021/09/04 10:33:06;;;;;;;12.18;9.18;;;;;;;24.93;49.96;101867.84;10467353;28;20071;-79
2021/09/04 10:38:37;;;;;;;10.18;9.00;;;;;;;24.74;51.80;101958.88;10501645;28;20093;-81
2021/09/04 10:49:52;;;;;;;10.20;9.13;;;;;;;22.78;52.49;101626.69;10466828;28;20396;-83
2021/09/04 10:55:00;;;;;;;17.45;9.30;;;;;;;24.92;50.52;101895.78;10484808;28;20550;-77
2021/09/04 11:00:11;;;;;;;13.20;9.50;;;;;;;24.95;50.35;101934.06;10498328;28;20043;-77
2021/09/04 11:05:50;;;;;;;12.85;10.35;;;;;;;25.25;50.35;101941.72;10480614;28;20048;-84
2021/09/04 11:11:16;;;;;;;11.77;8.60;;;;;;;25.48;48.17;101944.00;10497835;28;20072;-79
2021/09/04 11:16:36;;;;;;;14.63;10.45;;;;;;;25.06;49.91;101894.22;10474960;28;20040;-79
2021/09/04 11:21:52;;;;;;;20.95;9.45;;;;;;;25.81;47.97;101943.84;10462588;28;20044;-79
2021/09/04 11:26:56;;;;;;;21.05;11.32;;;;;;;25.88;49.87;101950.81;10463701;28;20036;-84
2021/09/04 11:32:03;;;;;;;9.63;8.65;;;;;;;25.69;46.25;101922.72;10483640;28;20035;-81
2021/09/04 11:37:20;;;;;;;23.90;11.18;;;;;;;26.14;48.62;101942.50;10472142;28;20077;-81
2021/09/04 11:42:23;;;;;;;12.50;8.80;;;;;;;26.67;45.43;101907.78;10506267;28;20052;-78
2021/09/04 11:47:24;;;;;;;13.60;10.13;;;;;;;27.24;45.46;101935.38;10486843;28;20067;-78
2021/09/04 11:52:37;;;;;;;14.48;9.02;;;;;;;26.93;46.81;101948.53;10504605;28;20554;-78
2021/09/04 11:57:42;;;;;;;13.45;9.82;;;;;;;27.06;47.78;101898.75;10487055;28;20119;-84
2021/09/04 12:02:51;;;;;;;14.55;10.93;;;;;;;26.60;44.91;101895.28;10504971;28;20067;-81
2021/09/04 12:07:55;;;;;;;13.05;9.15;;;;;;;27.33;44.97;101897.53;10463416;28;20365;-76
2021/09/04 12:13:03;;;;;;;16.90;10.68;;;;;;;26.39;44.60;101900.03;10428161;28;20033;-77
2021/09/04 12:18:14;;;;;;;12.82;11.02;;;;;;;26.18;45.80;101894.47;10506528;28;20048;-77
2021/09/04 12:23:18;;;;;;;13.60;9.63;;;;;;;26.41;45.40;101939.44;10484599;28;20032;-77
2021/09/04 12:28:25;;;;;;;10.38;9.38;;;;;;;25.80;47.03;101775.69;10502330;28;20032;-76
2021/09/04 12:33:32;;;;;;;11.32;10.15;;;;;;;27.38;46.57;101905.00;10485476;28;20037;-79
2021/09/04 12:43:58;;;;;;;13.55;10.35;;;;;;;27.83;44.61;101912.28;10446104;28;20070;-82
2021/09/04 12:48:59;;;;;;;20.27;10.50;;;;;;;27.73;43.99;101901.19;10501795;28;20053;-82
2021/09/04 12:54:04;;;;;;;15.25;11.75;;;;;;;27.03;45.36;101857.63;10485424;28;20025;-80
2021/09/04 12:59:08;;;;;;;14.57;9.15;;;;;;;26.34;46.30;101814.75;10502610;28;20543;-82
2021/09/04 13:04:28;;;;;;;23.17;9.68;;;;;;;25.57;46.15;101655.88;10501196;28;20039;-82
2021/09/04 13:09:29;;;;;;;13.68;8.70;;;;;;;26.97;44.11;101910.75;10502850;28;20402;-82
2021/09/04 13:14:32;;;;;;;15.52;10.20;;;;;;;27.55;43.47;101903.50;10545160;28;20032;-81
2021/09/04 13:19:32;;;;;;;10.55;9.43;;;;;;;26.96;43.41;101840.38;10526699;28;20382;-81
2021/09/04 13:24:33;;;;;;;9.75;8.43;;;;;;;27.01;42.64;101895.97;10525015;28;20031;-81
2021/09/04 13:29:34;;;;;;;7.75;7.07;;;;;;;27.05;43.89;101841.47;10524777;28;20093;-81
2021/09/04 13:34:34;;;;;;;10.93;7.97;;;;;;;27.71;45.94;101890.31;10508302;28;20024;-81
2021/09/04 13:39:35;;;;;;;11.45;9.98;;;;;;;28.11;42.18;101891.16;10525090;28;20051;-80
2021/09/04 13:44:35;;;;;;;11.85;9.85;;;;;;;27.94;44.10;101860.13;10541760;28;20073;-80
2021/09/04 13:49:59;;;;;;;15.27;9.32;;;;;;;27.97;48.87;101891.00;10524182;28;20064;-79
2021/09/04 13:55:00;;;;;;;14.45;8.90;;;;;;;28.44;43.00;101856.03;10505648;28;20040;-80
2021/09/04 14:00:00;;;;;;;12.15;8.95;;;;;;;28.25;44.14;101880.16;10541445;28;20048;-80
2021/09/04 14:05:03;;;;;;;10.38;8.48;;;;;;;27.67;42.50;101780.72;10542010;28;20036;-80
2021/09/04 14:10:04;;;;;;;13.50;7.93;;;;;;;28.06;42.50;101857.78;10507472;28;20042;-80
2021/09/04 14:15:05;;;;;;;9.43;8.27;;;;;;;28.10;41.37;101844.09;10541786;28;20036;-81
2021/09/04 14:20:06;;;;;;;10.93;8.35;;;;;;;27.08;44.57;101801.97;10508381;28;20122;-80
2021/09/04 14:25:13;;;;;;;18.90;10.07;;;;;;;27.37;45.00;101856.88;10523832;28;20111;-80
2021/09/04 14:30:13;;;;;;;11.55;9.05;;;;;;;27.18;44.28;101856.72;10525498;28;20060;-80
2021/09/04 14:35:14;;;;;;;13.98;8.23;;;;;;;26.97;46.10;101799.53;10540798;28;20544;-80
2021/09/04 14:40:14;;;;;;;10.35;7.75;;;;;;;24.93;45.74;101518.72;10522964;28;20448;-80
2021/09/04 14:45:14;;;;;;;13.32;8.73;;;;;;;26.51;48.42;101769.19;10539328;28;20040;-80
2021/09/04 14:50:17;;;;;;;8.77;7.85;;;;;;;26.95;45.24;101841.50;10539144;28;20079;-81
2021/09/04 14:55:17;;;;;;;19.73;10.05;;;;;;;25.43;45.30;101765.69;10538739;28;20076;-80
2021/09/04 15:00:18;;;;;;;8.38;7.35;;;;;;;24.94;47.48;101732.88;10522203;28;20064;-80
2021/09/04 15:05:40;;;;;;;8.88;6.75;;;;;;;25.05;50.79;101812.19;10523055;28;20417;-80
2021/09/04 15:11:04;;;;;;;13.60;9.80;;;;;;;25.17;49.36;101823.88;10539532;28;20040;-81
2021/09/04 15:16:04;;;;;;;9.32;8.40;;;;;;;23.86;51.46;101690.88;10524191;28;20074;-80
2021/09/04 15:21:04;;;;;;;15.70;9.68;;;;;;;24.13;50.08;101759.13;10521446;28;20042;-80
2021/09/04 15:26:16;;;;;;;12.52;9.68;;;;;;;24.53;50.03;101793.69;10540329;28;20036;-80
2021/09/04 15:31:16;;;;;;;15.38;9.52;;;;;;;24.28;50.79;101828.41;10538522;28;20040;-81
2021/09/04 15:36:19;;;;;;;12.57;8.02;;;;;;;24.34;50.46;101813.47;10504800;28;20044;-80
2021/09/04 15:41:20;;;;;;;12.15;9.18;;;;;;;24.35;51.03;101820.69;10540958;28;20146;-80
2021/09/04 15:46:20;;;;;;;11.90;9.05;;;;;;;23.90;51.26;101777.78;10539607;28;20068;-80
2021/09/04 15:51:24;;;;;;;16.33;8.77;;;;;;;24.11;51.94;101824.97;10540552;28;20059;-81
2021/09/04 15:56:47;;;;;;;9.73;7.90;;;;;;;22.35;53.25;101546.50;10540216;28;20074;-81
2021/09/04 16:01:54;;;;;;;10.63;8.02;;;;;;;23.99;51.63;101808.53;10523067;28;20127;-80
2021/09/04 16:06:54;;;;;;;11.27;7.75;;;;;;;23.90;51.86;101822.06;10523678;28;20032;-80
2021/09/04 16:12:02;;;;;;;8.57;7.75;;;;;;;23.62;54.64;101820.41;10522372;28;20109;-80
2021/09/04 16:17:08;;;;;;;11.10;8.27;;;;;;;23.50;52.42;101833.53;10506755;28;20120;-81
2021/09/04 16:22:09;;;;;;;22.15;8.57;;;;;;;23.35;51.44;101775.34;10528240;28;20088;-80
2021/09/04 16:27:09;;;;;;;8.68;7.85;;;;;;;23.48;52.85;101798.97;10529363;28;20047;-79
2021/09/04 16:32:09;;;;;;;8.98;7.47;;;;;;;23.37;53.43;101792.50;10511859;28;20024;-79
2021/09/04 16:37:17;;;;;;;16.92;8.18;;;;;;;23.30;52.54;101811.25;10546413;28;20063;-80
2021/09/04 16:42:18;;;;;;;22.23;8.90;;;;;;;23.10;55.06;101806.31;10528207;28;20059;-81
2021/09/04 16:47:18;;;;;;;10.70;7.57;;;;;;;23.11;54.24;101810.75;10546872;28;20047;-80
2021/09/04 16:52:20;;;;;;;12.90;9.27;;;;;;;22.81;52.90;101767.00;10545734;28;20056;-80
2021/09/04 16:57:20;;;;;;;16.30;7.50;;;;;;;23.07;53.32;101809.59;10528289;28;20063;-80
2021/09/04 17:02:26;;;;;;;8.98;7.47;;;;;;;20.64;53.62;101504.22;10546159;28;20036;-80
2021/09/04 17:07:26;;;;;;;7.45;6.32;;;;;;;22.12;54.54;101702.09;10527252;28;20119;-80
2021/09/04 17:12:32;;;;;;;15.35;9.45;;;;;;;22.44;54.81;101781.47;10545266;28;20039;-80
2021/09/04 17:17:36;;;;;;;10.65;6.90;;;;;;;22.46;54.38;101807.72;10510940;28;20035;-80
2021/09/04 17:22:36;;;;;;;14.85;7.85;;;;;;;21.63;55.40;101698.34;10526893;28;20032;-80
2021/09/04 17:27:36;;;;;;;11.75;8.27;;;;;;;22.26;54.80;101807.44;10526609;28;20036;-80
2021/09/04 17:32:37;;;;;;;9.23;8.23;;;;;;;21.72;55.17;101768.50;10543248;28;20090;-80
2021/09/04 17:37:49;;;;;;;8.90;7.68;;;;;;;21.43;57.45;101754.78;10544697;28;20031;-80
2021/09/04 17:42:49;;;;;;;9.35;8.27;;;;;;;21.25;56.47;101749.47;10542017;28;20043;-80
2021/09/04 17:47:50;;;;;;;9.93;7.22;;;;;;;21.44;56.68;101814.34;10541940;28;20032;-80
2021/09/04 17:53:08;;;;;;;10.15;8.10;;;;;;;20.96;57.37;101756.94;10542182;28;20056;-81
2021/09/04 17:58:17;;;;;;;10.35;7.53;;;;;;;21.30;57.56;101822.03;10507338;28;20040;-80
2021/09/04 18:03:25;;;;;;;17.27;9.27;;;;;;;18.51;56.47;101373.28;10523420;28;20121;-80
2021/09/04 18:08:26;;;;;;;13.90;7.85;;;;;;;20.97;56.22;101792.50;10507157;28;20032;-80
2021/09/04 18:13:41;;;;;;;14.07;9.68;;;;;;;21.13;56.51;101854.22;10542580;28;20059;-80
2021/09/04 18:18:41;;;;;;;12.80;8.30;;;;;;;21.03;56.48;101845.75;10453964;28;20057;-80
2021/09/04 18:23:42;;;;;;;12.90;8.65;;;;;;;20.16;57.09;101759.38;10438666;28;20475;-79
2021/09/04 18:28:42;;;;;;;18.90;8.63;;;;;;;20.31;58.63;101826.81;10437513;28;20094;-80
2021/09/04 18:33:42;;;;;;;13.35;8.60;;;;;;;20.29;58.31;101835.28;10453814;28;20049;-80
2021/09/04 18:38:43;;;;;;;12.57;8.60;;;;;;;20.26;58.73;101866.06;10437656;28;20451;-80
2021/09/04 18:43:44;;;;;;;13.93;8.75;;;;;;;20.12;58.89;101861.84;10434975;28;20160;-80
2021/09/04 18:48:44;;;;;;;9.95;7.68;;;;;;;19.90;58.62;101845.09;10507058;28;20459;-80
2021/09/04 18:53:44;;;;;;;20.67;9.25;;;;;;;19.88;59.30;101872.84;10542663;28;20044;-80
2021/09/04 18:58:45;;;;;;;13.77;8.93;;;;;;;19.07;59.40;101761.59;10523138;28;20036;-80
2021/09/04 19:03:45;;;;;;;12.25;9.65;;;;;;;19.09;60.10;101835.50;10524104;28;20482;-80
2021/09/04 19:08:46;;;;;;;20.40;10.70;;;;;;;19.61;59.94;101923.72;10524833;28;20032;-80
2021/09/04 19:13:46;;;;;;;21.52;14.73;;;;;;;19.34;60.80;101890.31;10523168;28;20103;-80
2021/09/04 19:18:47;;;;;;;18.13;9.40;;;;;;;19.34;61.00;101907.63;10541171;28;20036;-80
2021/09/04 19:23:51;;;;;;;15.23;10.05;;;;;;;19.02;60.52;101865.78;10524422;28;20114;-80
2021/09/04 19:29:11;;;;;;;13.98;8.98;;;;;;;19.00;60.30;101867.91;10506536;28;20039;-80
2021/09/04 19:34:12;;;;;;;18.60;9.45;;;;;;;19.13;60.70;101917.16;10525797;28;20028;-81
2021/09/04 19:39:12;;;;;;;15.57;9.27;;;;;;;17.94;60.91;101742.91;10521842;28;20044;-79
2021/09/04 19:44:12;;;;;;;15.18;8.65;;;;;;;18.96;61.32;101921.59;10523087;28;20078;-80
2021/09/04 19:49:15;;;;;;;11.40;10.10;;;;;;;18.91;61.93;101921.44;10539167;28;20055;-80
2021/09/04 19:54:16;;;;;;;17.63;9.05;;;;;;;18.85;61.72;101930.56;10543948;28;20033;-80
2021/09/04 19:59:16;;;;;;;11.48;9.32;;;;;;;18.81;61.31;101931.03;10546154;28;20036;-80
2021/09/04 20:04:17;;;;;;;14.75;8.52;;;;;;;18.57;61.33;101888.00;10528953;28;20040;-80
2021/09/04 20:09:17;;;;;;;13.30;10.10;;;;;;;18.76;61.03;101930.91;10547411;28;20039;-80
2021/09/04 20:14:17;;;;;;;10.13;8.75;;;;;;;18.63;60.93;101958.41;10548507;28;20070;-80
2021/09/04 20:19:18;;;;;;;11.65;9.10;;;;;;;18.40;61.61;101895.97;10546700;28;20045;-80
2021/09/04 20:24:18;;;;;;;20.45;9.95;;;;;;;17.99;61.59;101912.97;10530225;28;20399;-81
2021/09/04 20:29:21;;;;;;;12.95;9.82;;;;;;;18.32;61.85;101920.94;10546896;28;20102;-81
2021/09/04 20:34:23;;;;;;;15.20;9.13;;;;;;;18.55;62.23;102002.59;10529384;28;20101;-80
2021/09/04 20:39:26;;;;;;;20.40;10.05;;;;;;;18.41;61.43;101937.94;10512139;28;20158;-79
2021/09/04 20:44:27;;;;;;;12.05;10.43;;;;;;;18.45;61.77;101950.16;10497641;28;20051;-81
2021/09/04 20:49:28;;;;;;;29.83;11.98;;;;;;;18.38;62.49;101954.81;10511827;28;20048;-80
2021/09/04 20:54:29;;;;;;;15.48;10.40;;;;;;;18.42;61.90;101976.13;10528124;28;20100;-80
2021/09/04 20:59:30;;;;;;;20.42;11.45;;;;;;;18.18;61.76;101936.63;10545861;28;20493;-80
2021/09/04 21:04:30;;;;;;;26.27;11.18;;;;;;;18.30;62.46;101969.66;10544455;28;20182;-80
2021/09/04 21:09:30;;;;;;;22.95;11.43;;;;;;;18.20;61.89;101970.16;10544718;28;20550;-80
2021/09/04 21:14:31;;;;;;;15.00;11.38;;;;;;;18.13;63.19;101974.88;10544569;28;20113;-80
2021/09/04 21:19:31;;;;;;;18.20;11.40;;;;;;;17.97;63.88;101973.50;10509845;28;20059;-81
2021/09/04 21:24:37;;;;;;;34.95;11.77;;;;;;;18.00;64.85;101991.41;10545400;28;20035;-81
2021/09/04 21:29:37;;;;;;;17.98;10.45;;;;;;;17.96;65.17;101990.13;10511979;28;20035;-80
2021/09/04 21:34:38;;;;;;;21.45;11.38;;;;;;;17.70;65.57;101948.09;10527440;28;20035;-80
2021/09/04 21:39:38;;;;;;;16.45;10.18;;;;;;;17.77;65.12;101968.13;10543289;28;20067;-81
2021/09/04 21:44:39;;;;;;;18.10;11.30;;;;;;;17.76;65.52;101955.44;10542518;28;20044;-80
2021/09/04 21:49:39;;;;;;;11.80;10.55;;;;;;;17.90;65.76;101986.41;10524158;28;20048;-80
2021/09/04 21:54:40;;;;;;;18.73;12.13;;;;;;;17.01;65.06;101839.38;10542700;28;20127;-80
2021/09/04 21:59:40;;;;;;;17.52;10.70;;;;;;;17.87;65.48;101995.06;10543135;28;20036;-80
2021/09/04 22:04:40;;;;;;;25.90;10.15;;;;;;;17.80;65.26;101970.41;10524805;28;20150;-80
2021/09/04 22:09:41;;;;;;;15.18;10.95;;;;;;;17.74;65.06;101979.50;10506922;28;20403;-80
2021/09/04 22:14:41;;;;;;;17.98;10.48;;;;;;;17.77;65.91;101997.41;10513660;28;20041;-81
2021/09/04 22:19:42;;;;;;;18.63;10.23;;;;;;;16.96;66.05;101879.16;10451943;28;20084;-82
2021/09/04 22:24:42;;;;;;;14.80;10.20;;;;;;;16.94;65.81;101870.34;10486739;28;20064;-82
2021/09/04 22:29:42;;;;;;;22.20;11.35;;;;;;;17.43;66.44;101975.63;10482854;28;20035;-82
2021/09/04 22:34:49;;;;;;;14.90;11.48;;;;;;;17.41;66.62;102024.28;10490276;28;20361;-80
2021/09/04 22:39:49;;;;;;;22.92;10.98;;;;;;;17.55;66.59;102016.03;10441379;28;20021;-80
2021/09/04 22:44:51;;;;;;;17.70;12.10;;;;;;;17.53;66.41;102008.03;10468265;28;20456;-81
2021/09/04 22:49:51;;;;;;;19.83;12.07;;;;;;;16.95;66.76;101939.59;10480428;28;20052;-80
2021/09/04 22:54:51;;;;;;;30.83;13.63;;;;;;;17.37;66.86;102014.00;10481213;28;20044;-80
2021/09/04 22:59:52;;;;;;;18.02;12.00;;;;;;;17.21;67.37;102012.56;10498817;28;20123;-80
2021/09/04 23:04:52;;;;;;;26.75;12.20;;;;;;;17.05;67.12;102007.56;10498502;28;20400;-80